createdAt,value
2019-03-12T00:00:23.005Z,98843.07
2019-03-12T00:02:54.076Z,98848.08
2019-03-12T00:05:25.206Z,98860.17
2019-03-12T00:07:56.470Z,98863.55
2019-03-12T00:10:27.694Z,98860.89
2019-03-12T00:12:58.915Z,98860.41
2019-03-12T00:15:30.321Z,98860.41
2019-03-12T00:18:01.659Z,98872.86
2019-03-12T00:20:32.969Z,98864.09
2019-03-12T00:23:04.237Z,98883.47
2019-03-12T00:25:35.431Z,98886.63
2019-03-12T00:28:06.647Z,98897.33
2019-03-12T00:30:37.996Z,98899.41
2019-03-12T00:33:09.364Z,98910.75
2019-03-12T00:35:40.545Z,98920.75
2019-03-12T00:38:11.696Z,98922.48
2019-03-12T00:40:42.815Z,98924.48
2019-03-12T00:43:14.121Z,98935.77
2019-03-12T00:45:45.455Z,98932.12
2019-03-12T00:48:16.816Z,98920.75
2019-03-12T00:50:48.203Z,98923.28
2019-03-12T00:53:19.501Z,98925.20
2019-03-12T00:55:50.913Z,98927.09
2019-03-12T00:58:22.307Z,98937.46
2019-03-12T01:00:53.541Z,98939.63
2019-03-12T01:03:24.800Z,98938.81
2019-03-12T01:05:56.141Z,98942.70
2019-03-12T01:08:27.473Z,98945.66
2019-03-12T01:10:58.678Z,98938.94
2019-03-12T01:13:29.989Z,98934.97
2019-03-12T01:16:01.293Z,98933.64
2019-03-12T01:18:32.479Z,98936.81
2019-03-12T01:21:03.710Z,98955.11
2019-03-12T01:23:34.918Z,98954.52
2019-03-12T01:26:06.056Z,98952.67
2019-03-12T01:28:37.337Z,98956.16
2019-03-12T01:31:08.547Z,98963.31
2019-03-12T01:33:39.681Z,98962.28
2019-03-12T01:36:10.925Z,98974.13
2019-03-12T01:38:42.178Z,98976.78
2019-03-12T01:41:13.371Z,98982.40
2019-03-12T01:43:44.591Z,98988.92
2019-03-12T01:46:15.885Z,98990.77
2019-03-12T01:48:47.086Z,98984.67
2019-03-12T01:51:18.489Z,98983.30
2019-03-12T01:53:49.680Z,98986.95
2019-03-12T01:56:20.960Z,98984.20
2019-03-12T01:58:52.228Z,99000.73
2019-03-12T02:01:23.484Z,98998.20
2019-03-12T02:03:54.704Z,98997.88
2019-03-12T02:06:26.018Z,98994.06
2019-03-12T02:08:57.235Z,98996.97
2019-03-12T02:11:28.522Z,98993.26
2019-03-12T02:13:59.791Z,98994.22
2019-03-12T02:16:30.927Z,98991.56
2019-03-12T02:19:02.158Z,98987.17
2019-03-12T02:21:33.347Z,98986.06
2019-03-12T02:24:05.497Z,98993.84
2019-03-12T02:26:36.799Z,98991.83
2019-03-12T02:29:08.439Z,99004.83
2019-03-12T02:31:39.577Z,99015.63
2019-03-12T02:34:10.766Z,99000.68
2019-03-12T02:36:42.116Z,98997.88
2019-03-12T02:39:13.367Z,98999.16
2019-03-12T02:41:44.572Z,99012.25
2019-03-12T02:44:15.918Z,99022.62
2019-03-12T02:46:47.094Z,99021.05
2019-03-12T02:49:18.449Z,99019.55
2019-03-12T02:51:49.714Z,99018.70
2019-03-12T02:54:20.900Z,99024.38
2019-03-12T02:56:52.020Z,99033.08
2019-03-12T02:59:23.279Z,99040.21
2019-03-12T03:01:55.169Z,99045.27
2019-03-12T03:04:26.523Z,99045.27
2019-03-12T03:07:02.581Z,99045.00
2019-03-12T03:09:33.843Z,99038.95
2019-03-12T03:12:05.105Z,99042.67
2019-03-12T03:14:37.671Z,99045.94
2019-03-12T03:17:10.285Z,99050.34
2019-03-12T03:19:41.480Z,99052.38
2019-03-12T03:22:12.695Z,99056.98
2019-03-12T03:24:43.909Z,99058.58
2019-03-12T03:27:15.072Z,99054.70
2019-03-12T03:29:46.193Z,99065.41
2019-03-12T03:32:17.353Z,99084.77
2019-03-12T03:34:48.418Z,99086.83
2019-03-12T03:37:19.777Z,99090.17
2019-03-12T03:39:51.451Z,99088.41
2019-03-12T03:42:22.679Z,99092.98
2019-03-12T03:44:53.913Z,99088.80
2019-03-12T03:47:25.079Z,99087.67
2019-03-12T03:49:56.321Z,99100.52
2019-03-12T03:52:27.675Z,99103.06
2019-03-12T03:54:58.825Z,99104.50
2019-03-12T03:57:30.141Z,99106.65
2019-03-12T04:00:02.003Z,99101.56
2019-03-12T04:02:35.557Z,99108.99
2019-03-12T04:05:07.522Z,99108.66
2019-03-12T04:07:38.930Z,99108.13
2019-03-12T04:10:11.711Z,99109.78
2019-03-12T04:12:42.960Z,99110.63
2019-03-12T04:15:15.919Z,99122.13
2019-03-12T04:17:47.314Z,99130.70
2019-03-12T04:20:18.858Z,99134.20
2019-03-12T04:22:50.082Z,99140.77
2019-03-12T04:25:26.403Z,99139.04
2019-03-12T04:27:57.717Z,99143.68
2019-03-12T04:30:29.009Z,99146.41
2019-03-12T04:33:01.217Z,99146.33
2019-03-12T04:35:34.165Z,99149.01
2019-03-12T04:38:07.024Z,99156.06
2019-03-12T04:40:38.225Z,99156.93
2019-03-12T04:43:09.489Z,99167.23
2019-03-12T04:45:40.799Z,99179.55
2019-03-12T04:48:12.106Z,99183.21
2019-03-12T04:50:43.493Z,99196.83
2019-03-12T04:53:14.717Z,99200.55
2019-03-12T04:55:45.995Z,99195.34
2019-03-12T04:58:17.439Z,99199.22
2019-03-12T05:00:48.673Z,99209.60
2019-03-12T05:03:20.160Z,99221.77
2019-03-12T05:05:51.911Z,99226.97
2019-03-12T05:08:23.237Z,99233.92
2019-03-12T05:10:54.588Z,99239.34
2019-03-12T05:13:25.882Z,99233.88
2019-03-12T05:15:56.997Z,99228.88
2019-03-12T05:18:28.327Z,99221.40
2019-03-12T05:20:59.760Z,99230.30
2019-03-12T05:23:30.930Z,99234.20
2019-03-12T05:26:02.267Z,99235.53
2019-03-12T05:28:33.518Z,99241.77
2019-03-12T05:31:04.812Z,99240.05
2019-03-12T05:33:36.037Z,99246.82
2019-03-12T05:36:07.195Z,99244.38
2019-03-12T05:38:38.404Z,99248.13
2019-03-12T05:41:12.184Z,99243.67
2019-03-12T05:43:42.630Z,99244.53
2019-03-12T05:46:15.372Z,99258.26
2019-03-12T05:48:46.760Z,99250.70
2019-03-12T05:51:18.020Z,99257.31
2019-03-12T05:53:51.080Z,99263.56
2019-03-12T05:56:22.389Z,99259.98
2019-03-12T05:58:53.689Z,99265.62
2019-03-12T06:01:24.894Z,99263.18
2019-03-12T06:03:56.168Z,99271.75
2019-03-12T06:06:27.437Z,99265.14
2019-03-12T06:08:58.765Z,99266.80
2019-03-12T06:11:31.516Z,99267.72
2019-03-12T06:14:02.734Z,99274.21
2019-03-12T06:16:33.978Z,99273.55
2019-03-12T06:19:05.526Z,99278.45
2019-03-12T06:21:36.779Z,99274.88
2019-03-12T06:24:07.977Z,99281.69
2019-03-12T06:26:39.328Z,99277.40
2019-03-12T06:29:10.676Z,99282.49
2019-03-12T06:31:46.584Z,99291.90
2019-03-12T06:34:19.466Z,99291.09
2019-03-12T06:36:52.346Z,99282.09
2019-03-12T06:39:42.955Z,99286.60
2019-03-12T06:42:20.619Z,99285.53
2019-03-12T06:44:53.620Z,99292.37
2019-03-12T06:47:26.524Z,99293.13
2019-03-12T06:50:05.043Z,99297.11
2019-03-12T06:52:43.690Z,99298.00
2019-03-12T06:55:16.496Z,99296.00
2019-03-12T06:58:02.351Z,99287.95
2019-03-12T07:00:40.895Z,99292.78
2019-03-12T07:03:16.375Z,99297.00
2019-03-12T07:05:55.126Z,99301.70
2019-03-12T07:08:36.506Z,99306.05
2019-03-12T07:11:25.437Z,99302.28
2019-03-12T07:14:00.905Z,99302.67
2019-03-12T07:16:33.780Z,99307.39
2019-03-12T07:19:12.593Z,99309.05
2019-03-12T07:21:45.397Z,99311.44
2019-03-12T07:24:18.459Z,99312.09
2019-03-12T07:27:03.780Z,99310.59
2019-03-12T07:29:42.510Z,99317.41
2019-03-12T07:32:18.123Z,99314.17
2019-03-12T07:34:50.985Z,99315.00
2019-03-12T07:37:26.481Z,99306.49
2019-03-12T07:39:59.294Z,99307.84
2019-03-12T07:42:35.310Z,99299.68
2019-03-12T07:45:10.771Z,99301.87
2019-03-12T07:47:46.358Z,99305.86
2019-03-12T07:50:32.200Z,99309.86
2019-03-12T07:53:19.990Z,99299.53
2019-03-12T07:56:10.729Z,99301.85
2019-03-12T07:58:49.493Z,99299.18
2019-03-12T08:01:24.925Z,99290.28
2019-03-12T08:03:59.609Z,99289.52
2019-03-12T08:06:50.439Z,99294.17
2019-03-12T08:09:25.825Z,99289.15
2019-03-12T08:12:04.448Z,99280.66
2019-03-12T08:14:37.154Z,99278.63
2019-03-12T08:17:13.081Z,99270.02
2019-03-12T08:20:02.068Z,99278.73
2019-03-12T08:22:35.018Z,99266.59
2019-03-12T08:25:09.734Z,99269.43
2019-03-12T08:27:54.456Z,99268.02
2019-03-12T08:30:33.311Z,99273.27
2019-03-12T08:33:09.082Z,99264.05
2019-03-12T08:35:44.740Z,99265.88
2019-03-12T08:38:17.552Z,99258.94
2019-03-12T08:41:06.562Z,99261.64
2019-03-12T08:43:42.197Z,99265.56
2019-03-12T08:46:18.392Z,99261.30
2019-03-12T08:48:53.216Z,99264.95
2019-03-12T08:51:29.032Z,99256.95
2019-03-12T08:54:04.849Z,99258.28
2019-03-12T08:56:40.624Z,99258.88
2019-03-12T08:59:25.790Z,99256.27
2019-03-12T09:02:02.390Z,99258.17
2019-03-12T09:04:50.659Z,99263.05
2019-03-12T09:07:32.566Z,99264.44
2019-03-12T09:10:08.758Z,99268.90
2019-03-12T09:12:47.730Z,99268.67
2019-03-12T09:15:32.507Z,99269.44
2019-03-12T09:18:05.258Z,99264.69
2019-03-12T09:20:54.314Z,99258.02
2019-03-12T09:23:36.347Z,99258.23
2019-03-12T09:26:20.687Z,99260.33
2019-03-12T09:29:05.497Z,99253.97
2019-03-12T09:31:44.391Z,99247.05
2019-03-12T09:34:23.233Z,99239.84
2019-03-12T09:37:11.339Z,99247.11
2019-03-12T09:39:44.228Z,99248.85
2019-03-12T09:42:28.968Z,99242.97
2019-03-12T09:45:07.659Z,99248.52
2019-03-12T09:47:40.601Z,99248.77
2019-03-12T09:50:19.305Z,99244.28
2019-03-12T09:53:01.575Z,99235.09
2019-03-12T09:55:40.546Z,99238.31
2019-03-12T09:58:19.410Z,99234.05
2019-03-12T10:00:55.311Z,99237.63
2019-03-12T10:03:31.122Z,99239.20
2019-03-12T10:06:19.113Z,99227.80
2019-03-12T10:08:54.935Z,99228.97
2019-03-12T10:11:40.095Z,99233.02
2019-03-12T10:14:28.972Z,99230.36
2019-03-12T10:17:18.255Z,99219.16
2019-03-12T10:19:51.169Z,99216.94
2019-03-12T10:22:29.838Z,99213.19
2019-03-12T10:25:17.937Z,99211.59
2019-03-12T10:27:57.059Z,99211.27
2019-03-12T10:30:32.824Z,99211.75
2019-03-12T10:33:08.507Z,99210.59
2019-03-12T10:35:44.328Z,99204.12
2019-03-12T10:39:07.050Z,99207.41
2019-03-12T10:41:49.500Z,99205.98
2019-03-12T10:44:21.964Z,99212.77
2019-03-12T10:47:00.438Z,99205.70
2019-03-12T10:49:37.538Z,99200.78
2019-03-12T10:52:04.667Z,99203.73
2019-03-12T10:54:36.126Z,99200.89
2019-03-12T10:57:07.208Z,99202.41
2019-03-12T10:59:38.841Z,99200.78
2019-03-12T11:02:10.177Z,99201.91
2019-03-12T11:04:42.485Z,99201.98
2019-03-12T11:07:16.667Z,99192.31
2019-03-12T11:09:46.625Z,99202.11
2019-03-12T11:12:17.907Z,99182.64
2019-03-12T11:14:49.076Z,99181.17
2019-03-12T11:17:20.285Z,99186.34
2019-03-12T11:19:51.474Z,99181.95
2019-03-12T11:22:22.787Z,99183.66
2019-03-12T11:24:55.256Z,99192.80
2019-03-12T11:27:26.387Z,99181.67
2019-03-12T11:29:57.806Z,99180.48
2019-03-12T11:32:28.994Z,99181.09
2019-03-12T11:35:00.406Z,99181.62
2019-03-12T11:37:31.681Z,99178.87
2019-03-12T11:40:03.184Z,99172.23
2019-03-12T11:42:35.678Z,99177.82
2019-03-12T11:45:16.129Z,99171.50
2019-03-12T11:47:44.960Z,99167.38
2019-03-12T11:50:23.577Z,99163.17
2019-03-12T11:52:58.378Z,99171.13
2019-03-12T11:55:27.901Z,99168.48
2019-03-12T11:57:59.522Z,99168.25
2019-03-12T12:00:35.549Z,99168.20
2019-03-12T12:03:06.938Z,99164.78
2019-03-12T12:05:38.209Z,99163.75
2019-03-12T12:08:09.470Z,99175.40
2019-03-12T12:10:40.651Z,99178.59
2019-03-12T12:13:11.808Z,99180.89
2019-03-12T12:15:43.179Z,99179.73
2019-03-12T12:18:14.472Z,99178.09
2019-03-12T12:20:45.616Z,99182.62
2019-03-12T12:23:16.894Z,99197.61
2019-03-12T12:25:48.186Z,99205.77
2019-03-12T12:28:19.236Z,99195.97
2019-03-12T12:30:50.352Z,99193.32
2019-03-12T12:33:21.620Z,99192.92
2019-03-12T12:35:52.958Z,99193.42
2019-03-12T12:38:24.272Z,99195.99
2019-03-12T12:40:55.708Z,99199.98
2019-03-12T12:43:26.980Z,99190.59
2019-03-12T12:45:58.342Z,99182.70
2019-03-12T12:48:29.722Z,99175.57
2019-03-12T12:51:03.470Z,99186.36
2019-03-12T12:53:34.161Z,99188.28
2019-03-12T12:56:05.445Z,99189.66
2019-03-12T12:58:36.612Z,99187.69
2019-03-12T13:01:07.882Z,99190.53
2019-03-12T13:03:39.181Z,99193.01
2019-03-12T13:06:10.336Z,99196.02
2019-03-12T13:08:41.617Z,99191.41
2019-03-12T13:11:12.760Z,99192.74
2019-03-12T13:13:43.978Z,99191.28
2019-03-12T13:16:24.351Z,99195.78
2019-03-12T13:18:48.411Z,99196.51
2019-03-12T13:21:20.763Z,99194.83
2019-03-12T13:23:52.033Z,99199.13
2019-03-12T13:26:23.172Z,99194.20
2019-03-12T13:28:54.316Z,99192.53
2019-03-12T13:31:25.480Z,99193.20
2019-03-12T13:33:56.709Z,99188.66
2019-03-12T13:36:27.791Z,99194.44
2019-03-12T13:38:59.061Z,99193.27
2019-03-12T13:41:30.535Z,99197.84
2019-03-12T13:44:01.848Z,99199.00
2019-03-12T13:46:33.131Z,99193.06
2019-03-12T13:49:04.290Z,99195.06
2019-03-12T13:51:35.752Z,99201.66
2019-03-12T13:54:09.741Z,99201.34
2019-03-12T13:56:41.077Z,99197.06
2019-03-12T13:59:12.281Z,99197.12
2019-03-12T14:01:43.599Z,99193.13
2019-03-12T14:04:14.858Z,99195.86
2019-03-12T14:06:46.144Z,99199.55
2019-03-12T14:09:17.299Z,99197.20
2019-03-12T14:11:48.700Z,99197.97
2019-03-12T14:14:20.009Z,99206.24
2019-03-12T14:16:51.200Z,99201.13
2019-03-12T14:19:23.415Z,99205.12
2019-03-12T14:21:54.769Z,99205.63
2019-03-12T14:24:26.126Z,99202.95
2019-03-12T14:26:58.583Z,99213.50
2019-03-12T14:29:29.978Z,99216.91
2019-03-12T14:32:01.204Z,99219.19
2019-03-12T14:34:33.623Z,99219.19
2019-03-12T14:37:04.798Z,99214.92
2019-03-12T14:39:36.083Z,99218.48
2019-03-12T14:42:07.460Z,99222.97
2019-03-12T14:44:38.710Z,99218.26
2019-03-12T14:47:10.079Z,99225.06
2019-03-12T14:49:41.445Z,99222.13
2019-03-12T14:52:12.962Z,99232.79
2019-03-12T14:54:44.257Z,99231.17
2019-03-12T14:57:18.199Z,99232.09
2019-03-12T14:59:49.596Z,99241.42
2019-03-12T15:02:20.872Z,99239.07
2019-03-12T15:04:52.401Z,99248.49
2019-03-12T15:07:23.668Z,99246.72
2019-03-12T15:09:54.971Z,99243.77
2019-03-12T15:12:26.304Z,99248.66
2019-03-12T15:14:57.780Z,99256.13
2019-03-12T15:17:28.969Z,99262.16
2019-03-12T15:20:00.379Z,99262.48
2019-03-12T15:22:31.612Z,99266.09
2019-03-12T15:25:02.970Z,99269.29
2019-03-12T15:27:34.096Z,99270.48
2019-03-12T15:30:11.602Z,99272.77
2019-03-12T15:32:42.869Z,99279.84
2019-03-12T15:35:14.067Z,99292.16
2019-03-12T15:37:45.431Z,99288.84
2019-03-12T15:40:16.654Z,99286.34
2019-03-12T15:42:47.879Z,99303.02
2019-03-12T15:45:19.024Z,99302.19
2019-03-12T15:47:50.446Z,99310.70
2019-03-12T15:50:21.527Z,99310.85
2019-03-12T15:52:52.771Z,99313.17
2019-03-12T15:55:23.960Z,99310.52
2019-03-12T15:57:55.296Z,99314.66
2019-03-12T16:00:26.558Z,99317.16
2019-03-12T16:02:57.777Z,99318.52
2019-03-12T16:05:29.227Z,99312.17
2019-03-12T16:08:00.561Z,99312.31
2019-03-12T16:10:31.874Z,99312.30
2019-03-12T16:13:03.188Z,99306.16
2019-03-12T16:15:37.538Z,99318.48
2019-03-12T16:18:07.920Z,99322.63
2019-03-12T16:20:39.393Z,99322.11
2019-03-12T16:23:10.675Z,99335.53
2019-03-12T16:25:43.559Z,99341.35
2019-03-12T16:28:16.461Z,99339.30
2019-03-12T16:30:47.841Z,99345.48
2019-03-12T16:33:19.249Z,99342.34
2019-03-12T16:35:50.614Z,99351.67
2019-03-12T16:38:22.005Z,99350.66
2019-03-12T16:40:53.171Z,99349.02
2019-03-12T16:43:24.680Z,99339.28
2019-03-12T16:45:55.961Z,99332.66
2019-03-12T16:48:27.426Z,99340.49
2019-03-12T16:50:58.731Z,99342.92
2019-03-12T16:53:30.127Z,99348.29
2019-03-12T16:56:01.543Z,99355.89
2019-03-12T16:58:32.954Z,99364.53
2019-03-12T17:01:04.254Z,99363.88
2019-03-12T17:03:35.585Z,99361.19
2019-03-12T17:06:06.985Z,99360.22
2019-03-12T17:08:38.278Z,99365.31
2019-03-12T17:11:10.812Z,99361.45
2019-03-12T17:13:42.200Z,99363.75
2019-03-12T17:16:13.547Z,99359.89
2019-03-12T17:18:44.904Z,99362.45
2019-03-12T17:21:16.308Z,99365.73
2019-03-12T17:23:47.734Z,99364.75
2019-03-12T17:26:18.924Z,99357.39
2019-03-12T17:28:50.283Z,99358.30
2019-03-12T17:31:21.484Z,99364.72
2019-03-12T17:33:52.932Z,99364.20
2019-03-12T17:36:24.294Z,99368.02
2019-03-12T17:38:55.702Z,99369.80
2019-03-12T17:41:27.011Z,99374.11
2019-03-12T17:44:00.640Z,99376.89
2019-03-12T17:46:33.104Z,99370.56
2019-03-12T17:49:04.506Z,99369.78
2019-03-12T17:51:35.744Z,99379.40
2019-03-12T17:54:08.191Z,99374.09
2019-03-12T17:56:40.278Z,99371.80
2019-03-12T17:59:14.478Z,99374.38
2019-03-12T18:01:46.075Z,99368.77
2019-03-12T18:04:17.504Z,99363.73
2019-03-12T18:06:48.903Z,99363.25
2019-03-12T18:09:20.308Z,99365.22
2019-03-12T18:11:53.787Z,99358.45
2019-03-12T18:14:24.738Z,99353.56
2019-03-12T18:16:56.111Z,99353.69
2019-03-12T18:19:27.454Z,99354.34
2019-03-12T18:21:58.822Z,99362.56
2019-03-12T18:24:30.242Z,99364.25
2019-03-12T18:27:01.638Z,99368.14
2019-03-12T18:29:32.962Z,99362.98
2019-03-12T18:32:04.285Z,99362.40
2019-03-12T18:34:35.598Z,99368.66
2019-03-12T18:37:06.939Z,99374.13
2019-03-12T18:39:38.401Z,99365.45
2019-03-12T18:42:09.727Z,99376.56
2019-03-12T18:44:41.257Z,99384.46
2019-03-12T18:47:12.585Z,99382.83
2019-03-12T18:49:43.934Z,99380.39
2019-03-12T18:52:15.364Z,99379.02
2019-03-12T18:54:46.528Z,99380.84
2019-03-12T18:57:17.848Z,99375.34
2019-03-12T18:59:49.548Z,99377.13
2019-03-12T19:02:20.875Z,99379.63
2019-03-12T19:04:52.295Z,99374.33
2019-03-12T19:07:23.568Z,99380.83
2019-03-12T19:09:54.909Z,99369.04
2019-03-12T19:12:27.807Z,99368.42
2019-03-12T19:14:59.553Z,99357.94
2019-03-12T19:17:30.932Z,99366.59
2019-03-12T19:20:02.274Z,99359.06
2019-03-12T19:22:34.684Z,99347.73
2019-03-12T19:25:09.132Z,99340.65
2019-03-12T19:27:40.523Z,99341.67
2019-03-12T19:30:16.633Z,99340.62
2019-03-12T19:33:08.694Z,99329.08
2019-03-12T19:35:40.041Z,99326.20
2019-03-12T19:38:11.364Z,99317.91
2019-03-12T19:40:44.192Z,99316.84
2019-03-12T19:43:15.525Z,99309.28
2019-03-12T19:45:46.846Z,99306.23
2019-03-12T19:48:18.183Z,99305.94
2019-03-12T19:50:49.509Z,99300.23
2019-03-12T19:53:20.914Z,99300.98
2019-03-12T19:55:58.181Z,99307.02
2019-03-12T19:58:29.594Z,99315.89
2019-03-12T20:01:01.118Z,99317.12
2019-03-12T20:03:33.903Z,99330.77
2019-03-12T20:06:05.225Z,99327.31
2019-03-12T20:08:36.633Z,99328.16
2019-03-12T20:11:35.427Z,99335.59
2019-03-12T20:14:09.955Z,99342.27
2019-03-12T20:17:09.139Z,99342.55
2019-03-12T20:19:58.492Z,99343.58
2019-03-12T20:22:55.592Z,99348.40
2019-03-12T20:26:00.408Z,99336.30
2019-03-12T20:29:04.800Z,99338.47
2019-03-12T20:31:55.715Z,99328.94
2019-03-12T20:35:01.480Z,99332.55
2019-03-12T20:38:01.671Z,99334.42
2019-03-12T20:40:54.991Z,99330.16
2019-03-12T20:43:46.109Z,99331.92
2019-03-12T20:46:23.266Z,99335.89
2019-03-12T20:49:31.003Z,99332.36
2019-03-12T20:52:29.771Z,99327.95
2019-03-12T20:55:23.933Z,99339.34
2019-03-12T20:58:10.449Z,99339.61
2019-03-12T21:00:47.784Z,99349.35
2019-03-12T21:03:37.037Z,99349.17
2019-03-12T21:06:36.715Z,99343.33
2019-03-12T21:09:40.527Z,99347.00
2019-03-12T21:12:47.133Z,99348.22
2019-03-12T21:15:37.944Z,99347.15
2019-03-12T21:18:24.420Z,99350.12
2019-03-12T21:21:32.216Z,99343.06
2019-03-12T21:24:16.431Z,99338.05
2019-03-12T21:26:56.584Z,99344.34
2019-03-12T21:29:48.449Z,99348.02
2019-03-12T21:32:19.763Z,99349.80
2019-03-12T21:34:51.138Z,99342.84
2019-03-12T21:37:22.486Z,99341.92
2019-03-12T21:39:56.214Z,99339.86
2019-03-12T21:42:26.907Z,99340.67
2019-03-12T21:44:58.263Z,99332.98
2019-03-12T21:47:29.619Z,99336.10
2019-03-12T21:50:00.982Z,99332.31
2019-03-12T21:52:32.314Z,99333.83
2019-03-12T21:55:13.825Z,99341.36
2019-03-12T21:57:45.221Z,99325.09
2019-03-12T22:00:21.002Z,99326.62
2019-03-12T22:02:52.341Z,99329.59
2019-03-12T22:05:23.733Z,99332.03
2019-03-12T22:07:55.139Z,99331.91
2019-03-12T22:10:26.324Z,99343.51
2019-03-12T22:12:57.728Z,99342.59
2019-03-12T22:15:29.957Z,99341.52
2019-03-12T22:18:01.572Z,99338.36
2019-03-12T22:20:33.056Z,99333.57
2019-03-12T22:23:12.071Z,99335.81
2019-03-12T22:25:43.388Z,99339.83
2019-03-12T22:28:14.734Z,99344.91
2019-03-12T22:30:46.099Z,99353.26
2019-03-12T22:33:17.348Z,99345.75
2019-03-12T22:35:48.833Z,99339.31
2019-03-12T22:38:20.160Z,99341.33
2019-03-12T22:40:51.494Z,99346.12
2019-03-12T22:43:22.837Z,99351.63
2019-03-12T22:45:54.191Z,99356.20
2019-03-12T22:48:27.080Z,99350.59
2019-03-12T22:50:58.806Z,99347.70
2019-03-12T22:53:30.229Z,99351.80
2019-03-12T22:56:01.590Z,99348.86
2019-03-12T22:58:34.028Z,99349.28
2019-03-12T23:01:23.425Z,99348.00
2019-03-12T23:04:12.942Z,99355.17
2019-03-12T23:07:02.058Z,99355.66
2019-03-12T23:09:50.024Z,99347.45
2019-03-12T23:12:22.835Z,99351.63
2019-03-12T23:14:55.567Z,99353.46
2019-03-12T23:17:26.964Z,99349.16
2019-03-12T23:19:58.313Z,99343.56
2019-03-12T23:22:29.816Z,99341.95
2019-03-12T23:25:01.206Z,99341.19
2019-03-12T23:27:33.171Z,99344.05
2019-03-12T23:30:16.047Z,99341.81
2019-03-12T23:32:47.355Z,99335.81
2019-03-12T23:35:19.601Z,99337.16
2019-03-12T23:37:50.991Z,99341.85
2019-03-12T23:40:23.493Z,99335.52
2019-03-12T23:42:54.822Z,99335.59
2019-03-12T23:45:26.127Z,99341.52
2019-03-12T23:47:57.430Z,99331.10
2019-03-12T23:50:28.680Z,99331.14
2019-03-12T23:52:59.953Z,99331.20
2019-03-12T23:55:31.345Z,99321.23
2019-03-12T23:58:02.768Z,99318.62
